createdAt,value
2023-02-09T00:01:28.884Z,58.20
2023-02-09T00:03:56.934Z,62.70
2023-02-09T00:06:24.992Z,58.60
2023-02-09T00:08:52.777Z,63.72
2023-02-09T00:11:44.370Z,51.72
2023-02-09T00:14:12.579Z,53.53
2023-02-09T00:16:40.306Z,52.08
2023-02-09T00:19:07.757Z,57.78
2023-02-09T00:21:35.808Z,62.55
2023-02-09T00:24:03.213Z,61.63
2023-02-09T00:26:30.671Z,65.60
2023-02-09T00:28:57.990Z,57.03
2023-02-09T00:31:25.545Z,60.50
2023-02-09T00:33:52.945Z,67.68
2023-02-09T00:36:20.331Z,52.92
2023-02-09T00:38:48.887Z,63.67
2023-02-09T00:41:17.340Z,58.60
2023-02-09T00:43:44.670Z,71.10
2023-02-09T00:46:12.034Z,58.75
2023-02-09T00:48:39.362Z,53.58
2023-02-09T00:51:06.625Z,64.13
2023-02-09T00:53:36.698Z,65.63
2023-02-09T00:56:04.006Z,56.83
2023-02-09T00:58:31.286Z,55.00
2023-02-09T01:00:58.977Z,57.00
2023-02-09T01:03:26.715Z,60.80
2023-02-09T01:05:54.592Z,74.07
2023-02-09T01:08:22.223Z,60.30
2023-02-09T01:10:49.498Z,60.05
2023-02-09T01:13:17.405Z,58.00
2023-02-09T01:15:44.742Z,73.13
2023-02-09T01:18:12.697Z,78.45
2023-02-09T01:20:43.100Z,55.15
2023-02-09T01:23:10.504Z,62.30
2023-02-09T01:25:37.779Z,65.78
2023-02-09T01:28:05.067Z,71.28
2023-02-09T01:30:33.899Z,61.90
2023-02-09T01:33:01.211Z,51.13
2023-02-09T01:35:29.848Z,55.65
2023-02-09T01:37:58.922Z,63.70
2023-02-09T01:40:26.216Z,62.03
2023-02-09T01:42:53.549Z,68.32
2023-02-09T01:45:28.499Z,56.33
2023-02-09T01:48:01.621Z,72.13
2023-02-09T01:50:33.682Z,66.72
2023-02-09T01:53:02.754Z,51.13
2023-02-09T01:55:34.288Z,57.55
2023-02-09T01:58:07.167Z,64.85
2023-02-09T02:00:34.784Z,52.47
2023-02-09T02:03:05.754Z,53.47
2023-02-09T02:05:37.022Z,59.95
2023-02-09T02:08:17.169Z,62.45
2023-02-09T02:10:45.424Z,58.38
2023-02-09T02:13:12.950Z,58.10
2023-02-09T02:16:00.547Z,67.55
2023-02-09T02:18:28.260Z,57.00
2023-02-09T02:21:13.763Z,55.85
2023-02-09T02:24:06.144Z,55.63
2023-02-09T02:26:51.999Z,61.47
2023-02-09T02:29:59.469Z,53.88
2023-02-09T02:32:57.234Z,66.53
2023-02-09T02:35:24.900Z,64.75
2023-02-09T02:38:18.506Z,65.85
2023-02-09T02:41:10.969Z,55.78
2023-02-09T02:44:08.524Z,48.88
2023-02-09T02:46:54.552Z,54.05
2023-02-09T02:49:33.739Z,74.05
2023-02-09T02:52:04.908Z,67.50
2023-02-09T02:54:37.387Z,61.50
2023-02-09T02:57:10.328Z,73.90
2023-02-09T03:00:10.201Z,75.45
2023-02-09T03:02:48.529Z,65.57
2023-02-09T03:05:17.689Z,68.80
2023-02-09T03:07:45.017Z,62.10
2023-02-09T03:10:27.236Z,62.30
2023-02-09T03:13:07.928Z,65.30
2023-02-09T03:15:56.924Z,65.25
2023-02-09T03:18:52.850Z,63.03
2023-02-09T03:21:53.943Z,63.60
2023-02-09T03:24:43.317Z,71.80
2023-02-09T03:27:10.544Z,67.85
2023-02-09T03:29:39.008Z,70.30
2023-02-09T03:32:07.034Z,66.20
2023-02-09T03:34:35.058Z,64.30
2023-02-09T03:37:02.200Z,61.65
2023-02-09T03:39:29.485Z,68.32
2023-02-09T03:41:56.851Z,63.95
2023-02-09T03:44:27.382Z,69.60
2023-02-09T03:47:01.286Z,67.88
2023-02-09T03:49:34.561Z,54.40
2023-02-09T03:52:03.182Z,76.68
2023-02-09T03:54:31.723Z,83.28
2023-02-09T03:57:00.184Z,62.80
2023-02-09T03:59:28.764Z,77.43
2023-02-09T04:01:58.689Z,67.78
2023-02-09T04:04:26.488Z,66.80
2023-02-09T04:06:54.629Z,67.47
2023-02-09T04:09:22.431Z,56.55
2023-02-09T04:11:49.875Z,58.60
2023-02-09T04:14:17.730Z,54.97
2023-02-09T04:16:45.509Z,69.90
2023-02-09T04:19:12.872Z,69.57
2023-02-09T04:21:40.345Z,63.55
2023-02-09T04:24:08.630Z,67.00
2023-02-09T04:26:36.220Z,60.78
2023-02-09T04:29:04.351Z,70.38
2023-02-09T04:31:33.171Z,67.63
2023-02-09T04:34:00.626Z,60.50
2023-02-09T04:36:28.064Z,56.25
2023-02-09T04:38:55.480Z,66.38
2023-02-09T04:41:22.888Z,61.08
2023-02-09T04:43:50.573Z,58.45
2023-02-09T04:46:18.686Z,55.03
2023-02-09T04:48:46.254Z,60.08
2023-02-09T04:51:14.059Z,71.93
2023-02-09T04:53:41.426Z,61.33
2023-02-09T04:56:10.226Z,45.40
2023-02-09T04:58:55.956Z,63.88
2023-02-09T05:01:24.584Z,58.15
2023-02-09T05:03:52.445Z,60.00
2023-02-09T05:06:19.953Z,56.55
2023-02-09T05:08:48.613Z,53.85
2023-02-09T05:11:16.162Z,52.83
2023-02-09T05:13:43.525Z,58.80
2023-02-09T05:16:14.792Z,58.58
2023-02-09T05:18:42.137Z,60.33
2023-02-09T05:21:09.573Z,64.22
2023-02-09T05:23:36.870Z,61.60
2023-02-09T05:26:04.215Z,60.50
2023-02-09T05:28:31.495Z,70.25
2023-02-09T05:30:59.027Z,66.25
2023-02-09T05:33:26.404Z,56.72
2023-02-09T05:35:55.908Z,65.43
2023-02-09T05:38:23.804Z,60.33
2023-02-09T05:40:51.579Z,61.88
2023-02-09T05:43:19.203Z,51.72
2023-02-09T05:45:46.890Z,55.80
2023-02-09T05:48:14.224Z,53.35
2023-02-09T05:50:41.586Z,50.00
2023-02-09T05:53:09.533Z,47.03
2023-02-09T05:55:37.059Z,44.15
2023-02-09T05:58:04.552Z,48.15
2023-02-09T06:00:32.082Z,49.00
2023-02-09T06:02:59.891Z,47.90
2023-02-09T06:05:27.358Z,37.92
2023-02-09T06:07:54.689Z,43.08
2023-02-09T06:10:22.362Z,34.33
2023-02-09T06:12:49.848Z,35.10
2023-02-09T06:15:17.237Z,40.42
2023-02-09T06:17:44.795Z,51.90
2023-02-09T06:20:12.370Z,33.67
2023-02-09T06:22:39.635Z,48.10
2023-02-09T06:25:07.023Z,34.22
2023-02-09T06:27:34.400Z,40.47
2023-02-09T06:30:01.748Z,34.65
2023-02-09T06:32:29.062Z,37.00
2023-02-09T06:34:56.377Z,29.55
2023-02-09T06:37:23.659Z,35.90
2023-02-09T06:39:50.990Z,45.03
2023-02-09T06:42:18.262Z,37.40
2023-02-09T06:44:45.534Z,32.55
2023-02-09T06:47:12.968Z,40.10
2023-02-09T06:49:40.345Z,41.90
2023-02-09T06:52:07.782Z,31.02
2023-02-09T06:54:35.416Z,37.83
2023-02-09T06:57:02.688Z,36.55
2023-02-09T06:59:30.189Z,26.83
2023-02-09T07:01:57.572Z,38.05
2023-02-09T07:04:24.972Z,45.10
2023-02-09T07:06:52.275Z,41.85
2023-02-09T07:09:19.557Z,35.90
2023-02-09T07:11:46.839Z,28.45
2023-02-09T07:14:14.186Z,40.58
2023-02-09T07:16:41.481Z,40.15
2023-02-09T07:19:08.824Z,45.40
2023-02-09T07:21:36.285Z,49.40
2023-02-09T07:24:03.791Z,34.22
2023-02-09T07:26:31.089Z,35.60
2023-02-09T07:28:58.350Z,37.22
2023-02-09T07:31:27.161Z,40.38
2023-02-09T07:33:55.793Z,40.55
2023-02-09T07:36:23.167Z,38.65
2023-02-09T07:38:50.882Z,34.75
2023-02-09T07:41:20.573Z,34.75
2023-02-09T07:43:48.074Z,33.38
2023-02-09T07:46:17.022Z,37.47
2023-02-09T07:48:44.557Z,39.50
2023-02-09T07:51:17.086Z,46.58
2023-02-09T07:53:44.486Z,43.55
2023-02-09T07:56:12.413Z,52.45
2023-02-09T07:58:40.072Z,50.47
2023-02-09T08:01:10.493Z,56.50
2023-02-09T08:03:39.297Z,40.67
2023-02-09T08:06:41.901Z,43.00
2023-02-09T08:09:11.507Z,40.45
2023-02-09T08:11:47.399Z,41.80
2023-02-09T08:14:24.430Z,39.13
2023-02-09T08:17:17.844Z,45.17
2023-02-09T08:19:47.937Z,48.30
2023-02-09T08:22:15.377Z,35.00
2023-02-09T08:24:43.074Z,46.40
2023-02-09T08:27:10.762Z,43.70
2023-02-09T08:29:38.036Z,45.42
2023-02-09T08:32:05.617Z,43.10
2023-02-09T08:34:32.981Z,50.30
2023-02-09T08:37:00.412Z,46.90
2023-02-09T08:39:27.724Z,43.88
2023-02-09T08:41:55.122Z,52.17
2023-02-09T08:44:22.379Z,40.13
2023-02-09T08:46:49.814Z,41.17
2023-02-09T08:49:17.211Z,44.28
2023-02-09T08:51:44.461Z,78.40
2023-02-09T08:54:11.746Z,51.00
2023-02-09T08:56:39.066Z,49.30
2023-02-09T08:59:06.326Z,38.80
2023-02-09T09:01:33.689Z,42.97
2023-02-09T09:04:01.425Z,43.92
2023-02-09T09:06:28.744Z,46.25
2023-02-09T09:08:56.011Z,46.83
2023-02-09T09:11:23.253Z,41.92
2023-02-09T09:13:50.560Z,41.67
2023-02-09T09:16:22.873Z,50.53
2023-02-09T09:18:50.405Z,45.55
2023-02-09T09:21:19.084Z,52.72
2023-02-09T09:23:47.552Z,55.47
2023-02-09T09:26:16.595Z,48.92
2023-02-09T09:28:44.743Z,47.10
2023-02-09T09:31:14.708Z,39.05
2023-02-09T09:33:42.799Z,45.45
2023-02-09T09:36:11.036Z,55.45
2023-02-09T09:38:39.192Z,52.42
2023-02-09T09:41:22.587Z,50.80
2023-02-09T09:43:50.861Z,64.05
2023-02-09T09:46:22.125Z,54.78
2023-02-09T09:48:53.249Z,47.28
2023-02-09T09:51:35.928Z,39.17
2023-02-09T09:54:06.784Z,45.40
2023-02-09T09:56:34.586Z,33.67
2023-02-09T09:59:02.541Z,52.95
2023-02-09T10:01:32.246Z,50.70
2023-02-09T10:04:07.296Z,59.22
2023-02-09T10:06:34.570Z,48.03
2023-02-09T10:09:06.235Z,54.40
2023-02-09T10:11:59.911Z,41.25
2023-02-09T10:14:27.857Z,54.35
2023-02-09T10:16:55.213Z,39.03
2023-02-09T10:19:26.375Z,44.35
2023-02-09T10:21:55.074Z,53.78
2023-02-09T10:24:27.698Z,44.53
2023-02-09T10:27:24.726Z,46.70
2023-02-09T10:29:52.059Z,52.13
2023-02-09T10:32:22.098Z,49.15
2023-02-09T10:34:55.749Z,52.47
2023-02-09T10:37:35.490Z,45.85
2023-02-09T10:40:15.820Z,48.97
2023-02-09T10:43:05.737Z,58.42
2023-02-09T10:45:44.597Z,52.30
2023-02-09T10:48:12.153Z,57.45
2023-02-09T10:50:52.364Z,53.00
2023-02-09T10:53:23.888Z,43.97
2023-02-09T10:55:58.177Z,49.33
2023-02-09T10:58:35.259Z,47.53
2023-02-09T11:01:28.622Z,53.17
2023-02-09T11:04:05.485Z,47.92
2023-02-09T11:09:21.922Z,42.93
2023-02-09T11:11:49.515Z,56.47
2023-02-09T11:14:18.492Z,38.38
2023-02-09T11:17:10.687Z,48.13
2023-02-09T11:19:52.937Z,43.90
2023-02-09T11:22:52.414Z,43.60
2023-02-09T11:25:34.244Z,48.90
2023-02-09T11:28:01.610Z,52.58
2023-02-09T11:30:41.155Z,48.88
2023-02-09T11:33:46.085Z,46.38
2023-02-09T11:36:29.873Z,39.08
2023-02-09T11:39:25.071Z,42.78
2023-02-09T11:42:17.833Z,37.63
2023-02-09T11:44:53.714Z,36.47
2023-02-09T11:47:40.601Z,46.00
2023-02-09T11:50:17.986Z,39.33
2023-02-09T11:53:27.354Z,43.08
2023-02-09T11:56:18.179Z,34.63
2023-02-09T11:58:57.785Z,30.77
2023-02-09T12:01:46.640Z,30.90
2023-02-09T12:04:16.883Z,31.08
2023-02-09T12:06:55.075Z,28.77
2023-02-09T12:09:44.555Z,32.05
2023-02-09T12:12:44.184Z,30.73
2023-02-09T12:15:19.963Z,35.80
2023-02-09T12:17:57.527Z,43.65
2023-02-09T12:20:37.359Z,36.72
2023-02-09T12:23:17.244Z,32.85
2023-02-09T12:25:54.808Z,37.90
2023-02-09T12:28:31.376Z,41.65
2023-02-09T12:31:03.788Z,34.25
2023-02-09T12:33:37.107Z,27.25
2023-02-09T12:36:34.131Z,24.08
2023-02-09T12:39:25.143Z,26.27
2023-02-09T12:41:56.199Z,28.70
2023-02-09T12:44:23.584Z,33.10
2023-02-09T12:46:58.186Z,40.72
2023-02-09T12:49:28.776Z,32.08
2023-02-09T12:52:08.630Z,32.80
2023-02-09T12:54:48.236Z,35.72
2023-02-09T12:57:22.644Z,35.05
2023-02-09T12:59:50.591Z,33.25
2023-02-09T13:02:49.975Z,32.83
2023-02-09T13:08:11.818Z,30.73
2023-02-09T13:10:51.912Z,26.25
2023-02-09T13:13:46.440Z,29.58
2023-02-09T13:16:22.999Z,41.80
2023-02-09T13:19:46.844Z,41.22
2023-02-09T13:23:24.611Z,32.08
2023-02-09T13:26:01.923Z,37.22
2023-02-09T13:28:29.691Z,36.63
2023-02-09T13:31:06.086Z,41.63
2023-02-09T13:33:45.140Z,35.88
2023-02-09T13:36:31.048Z,36.35
2023-02-09T13:38:58.756Z,48.70
2023-02-09T13:41:37.385Z,35.35
2023-02-09T13:44:27.014Z,35.97
2023-02-09T13:47:00.718Z,34.45
2023-02-09T13:49:30.119Z,38.67
2023-02-09T13:52:16.542Z,36.10
2023-02-09T13:54:44.554Z,28.65
2023-02-09T13:57:29.673Z,31.55
2023-02-09T14:00:05.528Z,31.77
2023-02-09T14:02:35.644Z,36.22
2023-02-09T14:05:51.868Z,28.35
2023-02-09T14:08:19.110Z,31.73
2023-02-09T14:11:01.070Z,35.00
2023-02-09T14:13:40.179Z,23.40
2023-02-09T14:16:11.875Z,32.42
2023-02-09T14:19:02.877Z,29.13
2023-02-09T14:24:30.229Z,22.30
2023-02-09T14:27:07.913Z,18.80
2023-02-09T14:29:45.455Z,20.77
2023-02-09T14:32:40.403Z,28.27
2023-02-09T14:35:24.889Z,31.17
2023-02-09T14:37:55.094Z,21.77
2023-02-09T14:40:31.004Z,19.25
2023-02-09T14:43:27.323Z,21.67
2023-02-09T14:46:01.191Z,15.35
2023-02-09T14:48:31.218Z,21.70
2023-02-09T14:51:13.096Z,17.13
2023-02-09T14:53:43.379Z,16.40
2023-02-09T14:56:24.819Z,19.92
2023-02-09T14:58:52.323Z,20.98
2023-02-09T15:01:19.837Z,14.65
2023-02-09T15:03:47.432Z,21.98
2023-02-09T15:06:16.091Z,26.60
2023-02-09T15:08:43.718Z,22.15
2023-02-09T15:11:42.231Z,11.30
2023-02-09T15:14:11.506Z,14.15
2023-02-09T15:16:39.274Z,16.95
2023-02-09T15:19:17.342Z,17.25
2023-02-09T15:21:47.539Z,12.20
2023-02-09T15:24:18.065Z,18.90
2023-02-09T15:26:45.584Z,12.27
2023-02-09T15:29:15.343Z,17.15
2023-02-09T15:31:43.077Z,14.02
2023-02-09T15:34:11.622Z,13.38
2023-02-09T15:36:39.350Z,20.75
2023-02-09T15:39:27.938Z,15.75
2023-02-09T15:42:13.826Z,13.05
2023-02-09T15:44:59.604Z,10.57
2023-02-09T15:47:45.621Z,9.20
2023-02-09T15:50:16.910Z,18.13
2023-02-09T15:52:51.850Z,10.13
2023-02-09T15:55:21.550Z,11.68
2023-02-09T15:57:52.659Z,30.02
2023-02-09T16:00:35.991Z,22.92
2023-02-09T16:03:19.362Z,14.25
2023-02-09T16:05:50.126Z,10.15
2023-02-09T16:08:33.423Z,9.70
2023-02-09T16:11:01.917Z,13.38
2023-02-09T16:13:32.589Z,11.45
2023-02-09T16:16:15.879Z,6.82
2023-02-09T16:18:45.492Z,20.08
2023-02-09T16:21:31.607Z,15.70
2023-02-09T16:24:04.329Z,14.13
2023-02-09T16:26:58.546Z,26.27
2023-02-09T16:29:26.921Z,15.07
2023-02-09T16:31:54.609Z,24.58
2023-02-09T16:34:22.073Z,19.42
2023-02-09T16:36:49.805Z,21.13
2023-02-09T16:39:20.156Z,15.23
2023-02-09T16:41:49.667Z,19.27
2023-02-09T16:44:24.389Z,15.98
2023-02-09T16:46:57.415Z,21.50
2023-02-09T16:49:40.836Z,16.85
2023-02-09T16:52:17.282Z,33.75
2023-02-09T16:54:49.094Z,12.10
2023-02-09T16:57:18.794Z,17.05
2023-02-09T16:59:46.431Z,21.30
2023-02-09T17:02:22.660Z,14.55
2023-02-09T17:04:50.115Z,25.87
2023-02-09T17:07:17.432Z,27.30
2023-02-09T17:09:44.717Z,17.75
2023-02-09T17:12:12.415Z,33.80
2023-02-09T17:14:39.700Z,35.13
2023-02-09T17:17:09.978Z,29.95
2023-02-09T17:19:47.303Z,30.50
2023-02-09T17:22:16.197Z,34.88
2023-02-09T17:24:43.482Z,49.85
2023-02-09T17:27:11.862Z,59.88
2023-02-09T17:29:39.145Z,58.70
2023-02-09T17:32:06.728Z,73.95
2023-02-09T17:34:34.055Z,72.05
2023-02-09T17:37:01.304Z,54.53
2023-02-09T17:39:30.748Z,61.25
2023-02-09T17:41:59.582Z,48.97
2023-02-09T17:44:43.640Z,63.67
2023-02-09T17:47:17.609Z,54.85
2023-02-09T17:49:45.453Z,48.03
2023-02-09T17:52:19.240Z,50.92
2023-02-09T17:54:47.079Z,57.50
2023-02-09T17:57:16.499Z,60.92
2023-02-09T17:59:44.161Z,47.45
2023-02-09T18:02:17.386Z,58.83
2023-02-09T18:04:44.770Z,84.43
2023-02-09T18:07:13.861Z,59.92
2023-02-09T18:09:41.129Z,79.32
2023-02-09T18:12:24.033Z,44.22
2023-02-09T18:14:51.538Z,88.15
2023-02-09T18:17:19.383Z,52.28
2023-02-09T18:19:46.741Z,44.85
2023-02-09T18:22:18.023Z,58.22
2023-02-09T18:24:45.777Z,45.60
2023-02-09T18:27:19.203Z,30.38
2023-02-09T18:29:46.531Z,32.15
2023-02-09T18:32:16.441Z,31.58
2023-02-09T18:34:44.281Z,28.20
2023-02-09T18:37:13.908Z,34.58
2023-02-09T18:39:46.035Z,35.67
2023-02-09T18:42:15.433Z,37.92
2023-02-09T18:44:43.688Z,34.13
2023-02-09T18:47:11.457Z,30.60
2023-02-09T18:49:39.345Z,35.03
2023-02-09T18:52:08.393Z,29.60
2023-02-09T18:54:36.024Z,36.30
2023-02-09T18:57:03.503Z,32.47
2023-02-09T18:59:32.227Z,27.20
2023-02-09T19:02:00.202Z,40.85
2023-02-09T19:04:27.606Z,38.33
2023-02-09T19:06:55.089Z,34.47
2023-02-09T19:09:22.404Z,32.58
2023-02-09T19:11:49.706Z,31.60
2023-02-09T19:14:35.605Z,28.85
2023-02-09T19:17:03.274Z,38.70
2023-02-09T19:19:30.800Z,38.05
2023-02-09T19:22:00.143Z,32.10
2023-02-09T19:24:28.450Z,28.95
2023-02-09T19:26:56.061Z,28.65
2023-02-09T19:29:28.820Z,32.60
2023-02-09T19:31:56.256Z,31.83
2023-02-09T19:34:23.840Z,31.90
2023-02-09T19:36:51.221Z,26.15
2023-02-09T19:39:19.194Z,33.70
2023-02-09T19:41:48.945Z,33.45
2023-02-09T19:44:16.368Z,37.70
2023-02-09T19:46:43.861Z,32.50
2023-02-09T19:49:11.632Z,29.17
2023-02-09T19:51:38.993Z,36.42
2023-02-09T19:54:06.463Z,25.50
2023-02-09T19:56:33.755Z,34.80
2023-02-09T19:59:01.497Z,38.50
2023-02-09T20:01:31.313Z,34.42
2023-02-09T20:03:59.111Z,35.17
2023-02-09T20:06:26.428Z,32.85
2023-02-09T20:08:53.818Z,37.40
2023-02-09T20:11:21.443Z,29.75
2023-02-09T20:13:53.475Z,28.38
2023-02-09T20:16:24.544Z,38.38
2023-02-09T20:18:52.553Z,31.65
2023-02-09T20:21:22.264Z,39.28
2023-02-09T20:23:53.101Z,38.58
2023-02-09T20:26:23.518Z,32.53
2023-02-09T20:28:51.048Z,31.08
2023-02-09T20:31:19.905Z,43.20
2023-02-09T20:33:47.330Z,29.98
2023-02-09T20:36:14.995Z,39.70
2023-02-09T20:38:42.297Z,34.92
2023-02-09T20:41:11.950Z,24.23
2023-02-09T20:43:58.804Z,57.60
2023-02-09T20:46:43.966Z,27.67
2023-02-09T20:49:16.161Z,36.17
2023-02-09T20:51:45.678Z,48.83
2023-02-09T20:54:13.738Z,48.17
2023-02-09T20:56:41.547Z,39.25
2023-02-09T20:59:09.526Z,37.28
2023-02-09T21:01:38.229Z,48.78
2023-02-09T21:04:07.317Z,44.58
2023-02-09T21:06:38.040Z,47.90
2023-02-09T21:09:06.461Z,35.78
2023-02-09T21:11:33.994Z,41.70
2023-02-09T21:14:01.457Z,40.42
2023-02-09T21:16:29.341Z,37.33
2023-02-09T21:18:57.261Z,41.08
2023-02-09T21:21:26.899Z,40.00
2023-02-09T21:23:54.466Z,38.30
2023-02-09T21:26:25.296Z,49.22
2023-02-09T21:29:06.344Z,39.33
2023-02-09T21:31:34.180Z,40.72
2023-02-09T21:34:01.520Z,38.17
2023-02-09T21:36:28.882Z,43.42
2023-02-09T21:38:56.170Z,57.08
2023-02-09T21:41:44.450Z,64.65
2023-02-09T21:44:12.983Z,32.78
2023-02-09T21:46:40.268Z,44.53
2023-02-09T21:49:07.776Z,40.00
2023-02-09T21:51:35.481Z,47.45
2023-02-09T21:54:02.762Z,50.80
2023-02-09T21:56:30.105Z,36.28
2023-02-09T21:58:57.405Z,38.97
2023-02-09T22:01:24.785Z,41.55
2023-02-09T22:03:57.255Z,37.35
2023-02-09T22:06:25.565Z,44.35
2023-02-09T22:08:53.009Z,53.13
2023-02-09T22:11:20.323Z,39.03
2023-02-09T22:13:47.818Z,41.42
2023-02-09T22:16:20.906Z,39.20
2023-02-09T22:18:48.313Z,31.10
2023-02-09T22:21:15.652Z,43.47
2023-02-09T22:23:43.206Z,34.90
2023-02-09T22:26:12.921Z,39.05
2023-02-09T22:28:41.559Z,34.92
2023-02-09T22:31:11.885Z,35.72
2023-02-09T22:33:39.875Z,35.35
2023-02-09T22:36:09.574Z,43.72
2023-02-09T22:38:37.126Z,44.13
2023-02-09T22:41:22.093Z,37.22
2023-02-09T22:43:51.562Z,38.80
2023-02-09T22:46:20.105Z,37.92
2023-02-09T22:48:55.324Z,36.63
2023-02-09T22:51:24.341Z,40.17
2023-02-09T22:53:51.794Z,34.60
2023-02-09T22:56:19.293Z,41.88
2023-02-09T22:58:47.047Z,47.50
2023-02-09T23:01:14.991Z,39.90
2023-02-09T23:03:42.498Z,29.13
2023-02-09T23:06:13.848Z,27.45
2023-02-09T23:08:41.189Z,46.28
2023-02-09T23:11:10.877Z,32.03
2023-02-09T23:13:38.402Z,44.38
2023-02-09T23:16:12.435Z,35.88
2023-02-09T23:18:44.954Z,31.45
2023-02-09T23:21:12.687Z,30.55
2023-02-09T23:23:40.080Z,29.00
2023-02-09T23:26:07.534Z,36.90
2023-02-09T23:28:35.239Z,34.45
2023-02-09T23:31:07.520Z,38.95
2023-02-09T23:33:36.688Z,48.97
2023-02-09T23:36:06.088Z,36.95
2023-02-09T23:38:33.382Z,34.97
2023-02-09T23:41:12.671Z,33.88
2023-02-09T23:43:40.594Z,38.83
2023-02-09T23:46:12.049Z,28.75
2023-02-09T23:48:39.537Z,41.53
2023-02-09T23:51:13.303Z,24.85
2023-02-09T23:53:40.686Z,56.33
2023-02-09T23:56:08.528Z,30.70
2023-02-09T23:58:38.248Z,27.60
